sensor_id;sensor_type;location;lat;lon;timestamp;pressure;altitude;pressure_sealevel;temperature;humidity
44140;BME280;29803;51.048;4.686;2023-03-05T00:01:56;102317.06;;;4.51;100.00
44140;BME280;29803;51.048;4.686;2023-03-05T00:04:26;102313.28;;;4.55;100.00
44140;BME280;29803;51.048;4.686;2023-03-05T00:06:57;102309.88;;;4.53;100.00
44140;BME280;29803;51.048;4.686;2023-03-05T00:09:27;102302.25;;;4.47;100.00
44140;BME280;29803;51.048;4.686;2023-03-05T00:11:57;102297.72;;;4.49;100.00
44140;BME280;29803;51.048;4.686;2023-03-05T00:14:28;102299.97;;;4.40;100.00
44140;BME280;29803;51.048;4.686;2023-03-05T00:16:59;102297.28;;;4.40;100.00
44140;BME280;29803;51.048;4.686;2023-03-05T00:19:29;102293.09;;;4.36;100.00
44140;BME280;29803;51.048;4.686;2023-03-05T00:21:59;102284.22;;;4.37;100.00
44140;BME280;29803;51.048;4.686;2023-03-05T00:24:30;102287.91;;;4.35;100.00
44140;BME280;29803;51.048;4.686;2023-03-05T00:27:00;102284.56;;;4.31;100.00
44140;BME280;29803;51.048;4.686;2023-03-05T00:29:31;102287.22;;;4.31;100.00
44140;BME280;29803;51.048;4.686;2023-03-05T00:32:01;102286.34;;;4.31;100.00
44140;BME280;29803;51.048;4.686;2023-03-05T00:34:32;102287.50;;;4.27;100.00
44140;BME280;29803;51.048;4.686;2023-03-05T00:37:02;102283.31;;;4.23;100.00
44140;BME280;29803;51.048;4.686;2023-03-05T00:39:33;102281.09;;;4.15;100.00
44140;BME280;29803;51.048;4.686;2023-03-05T00:42:04;102278.03;;;4.07;100.00
44140;BME280;29803;51.048;4.686;2023-03-05T00:44:34;102282.84;;;4.00;100.00
44140;BME280;29803;51.048;4.686;2023-03-05T00:47:05;102276.88;;;3.97;100.00
44140;BME280;29803;51.048;4.686;2023-03-05T00:49:36;102271.72;;;3.94;100.00
44140;BME280;29803;51.048;4.686;2023-03-05T00:52:06;102264.78;;;3.91;100.00
44140;BME280;29803;51.048;4.686;2023-03-05T00:54:37;102267.53;;;3.89;100.00
44140;BME280;29803;51.048;4.686;2023-03-05T00:57:07;102259.66;;;3.88;100.00
44140;BME280;29803;51.048;4.686;2023-03-05T00:59:37;102254.41;;;3.86;100.00
44140;BME280;29803;51.048;4.686;2023-03-05T01:02:08;102263.28;;;3.87;100.00
44140;BME280;29803;51.048;4.686;2023-03-05T01:04:39;102248.25;;;3.86;100.00
44140;BME280;29803;51.048;4.686;2023-03-05T01:07:09;102247.50;;;3.84;100.00
44140;BME280;29803;51.048;4.686;2023-03-05T01:09:40;102250.25;;;3.82;100.00
44140;BME280;29803;51.048;4.686;2023-03-05T01:12:10;102241.50;;;3.80;100.00
44140;BME280;29803;51.048;4.686;2023-03-05T01:14:41;102239.03;;;3.77;100.00
44140;BME280;29803;51.048;4.686;2023-03-05T01:17:11;102237.50;;;3.73;100.00
44140;BME280;29803;51.048;4.686;2023-03-05T01:19:42;102242.97;;;3.70;100.00
44140;BME280;29803;51.048;4.686;2023-03-05T01:22:12;102236.91;;;3.68;100.00
44140;BME280;29803;51.048;4.686;2023-03-05T01:24:43;102226.56;;;3.63;100.00
44140;BME280;29803;51.048;4.686;2023-03-05T01:27:13;102223.31;;;3.58;100.00
44140;BME280;29803;51.048;4.686;2023-03-05T01:29:44;102220.91;;;3.54;100.00
44140;BME280;29803;51.048;4.686;2023-03-05T01:32:14;102216.72;;;3.50;100.00
44140;BME280;29803;51.048;4.686;2023-03-05T01:34:45;102216.63;;;3.51;100.00
44140;BME280;29803;51.048;4.686;2023-03-05T01:37:15;102206.53;;;3.58;100.00
44140;BME280;29803;51.048;4.686;2023-03-05T01:39:46;102206.59;;;3.56;100.00
44140;BME280;29803;51.048;4.686;2023-03-05T01:42:16;102203.03;;;3.57;100.00
44140;BME280;29803;51.048;4.686;2023-03-05T01:45:06;102205.69;;;3.57;100.00
44140;BME280;29803;51.048;4.686;2023-03-05T01:47:37;102200.28;;;3.59;100.00
44140;BME280;29803;51.048;4.686;2023-03-05T01:50:12;102187.97;;;3.58;100.00
44140;BME280;29803;51.048;4.686;2023-03-05T01:52:45;102187.97;;;3.58;100.00
44140;BME280;29803;51.048;4.686;2023-03-05T01:55:21;102190.44;;;3.61;100.00
44140;BME280;29803;51.048;4.686;2023-03-05T01:57:59;102189.50;;;3.62;100.00
44140;BME280;29803;51.048;4.686;2023-03-05T02:00:35;102182.47;;;3.61;100.00
44140;BME280;29803;51.048;4.686;2023-03-05T02:03:08;102180.75;;;3.60;100.00
44140;BME280;29803;51.048;4.686;2023-03-05T02:05:41;102182.47;;;3.61;100.00
44140;BME280;29803;51.048;4.686;2023-03-05T02:08:17;102172.63;;;3.63;100.00
44140;BME280;29803;51.048;4.686;2023-03-05T02:11:05;102168.22;;;3.78;100.00
44140;BME280;29803;51.048;4.686;2023-03-05T02:13:36;102165.03;;;3.87;100.00
44140;BME280;29803;51.048;4.686;2023-03-05T02:16:10;102163.97;;;3.89;100.00
44140;BME280;29803;51.048;4.686;2023-03-05T02:18:40;102164.56;;;3.95;100.00
44140;BME280;29803;51.048;4.686;2023-03-05T02:21:11;102160.22;;;3.94;100.00
44140;BME280;29803;51.048;4.686;2023-03-05T02:23:41;102151.50;;;3.92;100.00
44140;BME280;29803;51.048;4.686;2023-03-05T02:26:12;102140.09;;;3.89;100.00
44140;BME280;29803;51.048;4.686;2023-03-05T02:28:46;102149.19;;;3.85;100.00
44140;BME280;29803;51.048;4.686;2023-03-05T02:31:21;102150.22;;;3.83;100.00
44140;BME280;29803;51.048;4.686;2023-03-05T02:33:53;102147.56;;;3.83;100.00
44140;BME280;29803;51.048;4.686;2023-03-05T02:36:25;102144.25;;;3.79;100.00
44140;BME280;29803;51.048;4.686;2023-03-05T02:38:55;102156.19;;;3.86;100.00
44140;BME280;29803;51.048;4.686;2023-03-05T02:41:26;102147.47;;;3.84;100.00
44140;BME280;29803;51.048;4.686;2023-03-05T02:43:57;102148.53;;;3.82;100.00
44140;BME280;29803;51.048;4.686;2023-03-05T02:46:28;102147.84;;;3.78;100.00
44140;BME280;29803;51.048;4.686;2023-03-05T02:48:58;102141.75;;;3.76;100.00
44140;BME280;29803;51.048;4.686;2023-03-05T02:51:29;102144.41;;;3.76;100.00
44140;BME280;29803;51.048;4.686;2023-03-05T02:54:00;102138.34;;;3.74;100.00
44140;BME280;29803;51.048;4.686;2023-03-05T02:56:36;102131.50;;;3.70;100.00
44140;BME280;29803;51.048;4.686;2023-03-05T02:59:08;102130.75;;;3.68;100.00
44140;BME280;29803;51.048;4.686;2023-03-05T03:01:39;102130.91;;;3.65;100.00
44140;BME280;29803;51.048;4.686;2023-03-05T03:04:10;102131.97;;;3.62;100.00
44140;BME280;29803;51.048;4.686;2023-03-05T03:06:40;102119.66;;;3.61;100.00
44140;BME280;29803;51.048;4.686;2023-03-05T03:09:11;102117.00;;;3.61;100.00
44140;BME280;29803;51.048;4.686;2023-03-05T03:11:41;102109.97;;;3.60;100.00
44140;BME280;29803;51.048;4.686;2023-03-05T03:14:12;102108.16;;;3.61;100.00
44140;BME280;29803;51.048;4.686;2023-03-05T03:16:57;102100.19;;;3.61;100.00
44140;BME280;29803;51.048;4.686;2023-03-05T03:19:28;102100.19;;;3.61;100.00
44140;BME280;29803;51.048;4.686;2023-03-05T03:22:07;102100.19;;;3.61;100.00
44140;BME280;29803;51.048;4.686;2023-03-05T03:24:42;102089.59;;;3.61;100.00
44140;BME280;29803;51.048;4.686;2023-03-05T03:27:13;102086.06;;;3.60;100.00
44140;BME280;29803;51.048;4.686;2023-03-05T03:29:43;102083.41;;;3.60;100.00
44140;BME280;29803;51.048;4.686;2023-03-05T03:32:17;102083.41;;;3.60;100.00
44140;BME280;29803;51.048;4.686;2023-03-05T03:34:47;102088.72;;;3.60;100.00
44140;BME280;29803;51.048;4.686;2023-03-05T03:37:18;102079.84;;;3.61;100.00
44140;BME280;29803;51.048;4.686;2023-03-05T03:39:48;102081.63;;;3.61;100.00
44140;BME280;29803;51.048;4.686;2023-03-05T03:42:20;102078.22;;;3.59;100.00
44140;BME280;29803;51.048;4.686;2023-03-05T03:44:54;102076.50;;;3.58;100.00
44140;BME280;29803;51.048;4.686;2023-03-05T03:47:24;102073.00;;;3.57;100.00
44140;BME280;29803;51.048;4.686;2023-03-05T03:49:55;102073.19;;;3.54;100.00
44140;BME280;29803;51.048;4.686;2023-03-05T03:52:29;102067.03;;;3.54;100.00
44140;BME280;29803;51.048;4.686;2023-03-05T03:54:59;102056.50;;;3.52;100.00
44140;BME280;29803;51.048;4.686;2023-03-05T03:57:31;102054.03;;;3.49;100.00
44140;BME280;29803;51.048;4.686;2023-03-05T04:00:04;102054.19;;;3.46;100.00
44140;BME280;29803;51.048;4.686;2023-03-05T04:02:36;102050.69;;;3.46;100.00
44140;BME280;29803;51.048;4.686;2023-03-05T04:05:07;102052.50;;;3.45;100.00
44140;BME280;29803;51.048;4.686;2023-03-05T04:07:38;102047.13;;;3.47;100.00
44140;BME280;29803;51.048;4.686;2023-03-05T04:10:09;102045.13;;;3.50;100.00
44140;BME280;29803;51.048;4.686;2023-03-05T04:12:40;102041.59;;;3.50;100.00
44140;BME280;29803;51.048;4.686;2023-03-05T04:15:12;102044.25;;;3.50;100.00
44140;BME280;29803;51.048;4.686;2023-03-05T04:17:43;102036.31;;;3.50;100.00
44140;BME280;29803;51.048;4.686;2023-03-05T04:20:14;102034.59;;;3.49;100.00
44140;BME280;29803;51.048;4.686;2023-03-05T04:22:44;102033.84;;;3.47;100.00
44140;BME280;29803;51.048;4.686;2023-03-05T04:25:15;102030.31;;;3.46;100.00
44140;BME280;29803;51.048;4.686;2023-03-05T04:27:46;102026.91;;;3.44;100.00
44140;BME280;29803;51.048;4.686;2023-03-05T04:30:16;102022.56;;;3.43;100.00
44140;BME280;29803;51.048;4.686;2023-03-05T04:32:47;102016.41;;;3.43;100.00
44140;BME280;29803;51.048;4.686;2023-03-05T04:35:18;102012.97;;;3.41;100.00
44140;BME280;29803;51.048;4.686;2023-03-05T04:37:48;102010.41;;;3.39;100.00
44140;BME280;29803;51.048;4.686;2023-03-05T04:40:19;102022.84;;;3.38;100.00
44140;BME280;29803;51.048;4.686;2023-03-05T04:42:49;102013.16;;;3.37;100.00
44140;BME280;29803;51.048;4.686;2023-03-05T04:45:20;102017.63;;;3.37;100.00
44140;BME280;29803;51.048;4.686;2023-03-05T04:47:51;102021.03;;;3.39;100.00
44140;BME280;29803;51.048;4.686;2023-03-05T04:50:22;102008.81;;;3.36;100.00
44140;BME280;29803;51.048;4.686;2023-03-05T04:52:53;102006.22;;;3.35;100.00
44140;BME280;29803;51.048;4.686;2023-03-05T04:55:23;102009.94;;;3.32;100.00
44140;BME280;29803;51.048;4.686;2023-03-05T04:57:54;102015.16;;;3.34;100.00
44140;BME280;29803;51.048;4.686;2023-03-05T05:00:24;102000.06;;;3.34;100.00
44140;BME280;29803;51.048;4.686;2023-03-05T05:02:55;102003.69;;;3.33;100.00
44140;BME280;29803;51.048;4.686;2023-03-05T05:05:28;102002.94;;;3.31;100.00
44140;BME280;29803;51.048;4.686;2023-03-05T05:07:58;101997.63;;;3.31;100.00
44140;BME280;29803;51.048;4.686;2023-03-05T05:10:29;101999.41;;;3.31;100.00
44140;BME280;29803;51.048;4.686;2023-03-05T05:13:00;102001.13;;;3.32;100.00
44140;BME280;29803;51.048;4.686;2023-03-05T05:15:31;101991.38;;;3.32;100.00
44140;BME280;29803;51.048;4.686;2023-03-05T05:18:02;101991.28;;;3.34;100.00
44140;BME280;29803;51.048;4.686;2023-03-05T05:20:32;101992.22;;;3.33;100.00
44140;BME280;29803;51.048;4.686;2023-03-05T05:23:06;101993.06;;;3.33;100.00
44140;BME280;29803;51.048;4.686;2023-03-05T05:25:36;101997.44;;;3.34;100.00
44140;BME280;29803;51.048;4.686;2023-03-05T05:28:07;101992.22;;;3.33;100.00
44140;BME280;29803;51.048;4.686;2023-03-05T05:30:38;101985.88;;;3.35;100.00
44140;BME280;29803;51.048;4.686;2023-03-05T05:33:08;101982.34;;;3.35;100.00
44140;BME280;29803;51.048;4.686;2023-03-05T05:35:38;101982.47;;;3.33;100.00
44140;BME280;29803;51.048;4.686;2023-03-05T05:38:12;101979.63;;;3.36;100.00
44140;BME280;29803;51.048;4.686;2023-03-05T05:40:42;101976.19;;;3.34;100.00
44140;BME280;29803;51.048;4.686;2023-03-05T05:43:13;101973.56;;;3.34;100.00
44140;BME280;29803;51.048;4.686;2023-03-05T05:45:43;101975.34;;;3.34;100.00
44140;BME280;29803;51.048;4.686;2023-03-05T05:48:14;101979.72;;;3.35;100.00
44140;BME280;29803;51.048;4.686;2023-03-05T05:50:44;101973.66;;;3.33;100.00
44140;BME280;29803;51.048;4.686;2023-03-05T05:53:18;101971.84;;;3.33;100.00
44140;BME280;29803;51.048;4.686;2023-03-05T05:55:49;101962.19;;;3.32;100.00
44140;BME280;29803;51.048;4.686;2023-03-05T05:58:19;101964.84;;;3.32;100.00
44140;BME280;29803;51.048;4.686;2023-03-05T06:00:50;101960.56;;;3.30;100.00
44140;BME280;29803;51.048;4.686;2023-03-05T06:03:20;101966.66;;;3.32;100.00
44140;BME280;29803;51.048;4.686;2023-03-05T06:05:51;101961.25;;;3.33;100.00
44140;BME280;29803;51.048;4.686;2023-03-05T06:08:21;101960.50;;;3.31;100.00
44140;BME280;29803;51.048;4.686;2023-03-05T06:10:53;101964.84;;;3.32;100.00
44140;BME280;29803;51.048;4.686;2023-03-05T06:13:24;101963.91;;;3.33;100.00
44140;BME280;29803;51.048;4.686;2023-03-05T06:15:56;101962.09;;;3.34;100.00
44140;BME280;29803;51.048;4.686;2023-03-05T06:18:27;101961.06;;;3.36;100.00
44140;BME280;29803;51.048;4.686;2023-03-05T06:21:00;101963.50;;;3.40;100.00
44140;BME280;29803;51.048;4.686;2023-03-05T06:23:31;101968.66;;;3.43;100.00
44140;BME280;29803;51.048;4.686;2023-03-05T06:26:04;101963.91;;;3.48;100.00
44140;BME280;29803;51.048;4.686;2023-03-05T06:28:35;101972.91;;;3.45;100.00
44140;BME280;29803;51.048;4.686;2023-03-05T06:31:09;101972.31;;;3.40;100.00
44140;BME280;29803;51.048;4.686;2023-03-05T06:33:40;101966.16;;;3.40;100.00
44140;BME280;29803;51.048;4.686;2023-03-05T06:36:14;101969.78;;;3.38;100.00
44140;BME280;29803;51.048;4.686;2023-03-05T06:38:46;101963.78;;;3.35;100.00
44140;BME280;29803;51.048;4.686;2023-03-05T06:41:20;101960.50;;;3.31;100.00
44140;BME280;29803;51.048;4.686;2023-03-05T06:43:52;101955.19;;;3.31;100.00
44140;BME280;29803;51.048;4.686;2023-03-05T06:46:25;101957.06;;;3.29;100.00
44140;BME280;29803;51.048;4.686;2023-03-05T06:48:58;101963.22;;;3.30;100.00
44140;BME280;29803;51.048;4.686;2023-03-05T06:51:33;101950.81;;;3.30;100.00
44140;BME280;29803;51.048;4.686;2023-03-05T06:54:06;101949.94;;;3.30;100.00
44140;BME280;29803;51.048;4.686;2023-03-05T06:56:38;101949.31;;;3.26;100.00
44140;BME280;29803;51.048;4.686;2023-03-05T06:59:10;101944.28;;;3.22;100.00
44140;BME280;29803;51.048;4.686;2023-03-05T07:01:42;101945.97;;;3.23;100.00
44140;BME280;29803;51.048;4.686;2023-03-05T07:04:13;101949.31;;;3.26;100.00
44140;BME280;29803;51.048;4.686;2023-03-05T07:06:44;101949.09;;;3.29;100.00
44140;BME280;29803;51.048;4.686;2023-03-05T07:09:15;101945.91;;;3.38;100.00
44140;BME280;29803;51.048;4.686;2023-03-05T07:11:46;101945.72;;;3.42;100.00
44140;BME280;29803;51.048;4.686;2023-03-05T07:14:16;101941.91;;;3.46;100.00
44140;BME280;29803;51.048;4.686;2023-03-05T07:16:50;101943.25;;;3.53;100.00
44140;BME280;29803;51.048;4.686;2023-03-05T07:19:20;101941.06;;;3.59;100.00
44140;BME280;29803;51.048;4.686;2023-03-05T07:21:51;101939.56;;;3.70;100.00
44140;BME280;29803;51.048;4.686;2023-03-05T07:24:22;101938.41;;;3.88;100.00
44140;BME280;29803;51.048;4.686;2023-03-05T07:26:56;101938.88;;;3.95;100.00
44140;BME280;29803;51.048;4.686;2023-03-05T07:29:27;101941.81;;;4.04;100.00
44140;BME280;29803;51.048;4.686;2023-03-05T07:31:58;101930.91;;;4.09;100.00
44140;BME280;29803;51.048;4.686;2023-03-05T07:34:31;101931.34;;;4.15;100.00
44140;BME280;29803;51.048;4.686;2023-03-05T07:37:02;101931.72;;;4.24;100.00
44140;BME280;29803;51.048;4.686;2023-03-05T07:39:32;101926.13;;;4.28;100.00
44140;BME280;29803;51.048;4.686;2023-03-05T07:42:03;101936.50;;;4.31;100.00
44140;BME280;29803;51.048;4.686;2023-03-05T07:44:33;101930.28;;;4.32;100.00
44140;BME280;29803;51.048;4.686;2023-03-05T07:47:04;101924.13;;;4.32;100.00
44140;BME280;29803;51.048;4.686;2023-03-05T07:49:35;101927.41;;;4.35;100.00
44140;BME280;29803;51.048;4.686;2023-03-05T07:52:06;101926.91;;;4.43;100.00
44140;BME280;29803;51.048;4.686;2023-03-05T07:54:37;101917.47;;;4.52;100.00
44140;BME280;29803;51.048;4.686;2023-03-05T07:57:10;101923.44;;;4.55;100.00
44140;BME280;29803;51.048;4.686;2023-03-05T07:59:42;101928.56;;;4.58;100.00
44140;BME280;29803;51.048;4.686;2023-03-05T08:02:13;101921.81;;;4.67;100.00
44140;BME280;29803;51.048;4.686;2023-03-05T08:04:44;101921.56;;;4.70;100.00
44140;BME280;29803;51.048;4.686;2023-03-05T08:07:15;101924.78;;;4.75;100.00
44140;BME280;29803;51.048;4.686;2023-03-05T08:09:45;101923.28;;;4.71;100.00
44140;BME280;29803;51.048;4.686;2023-03-05T08:12:16;101922.44;;;4.71;100.00
44140;BME280;29803;51.048;4.686;2023-03-05T08:14:46;101928.22;;;4.77;100.00
44140;BME280;29803;51.048;4.686;2023-03-05T08:17:17;101916.81;;;4.75;100.00
44140;BME280;29803;51.048;4.686;2023-03-05T08:19:47;101905.88;;;4.80;100.00
44140;BME280;29803;51.048;4.686;2023-03-05T08:22:18;101916.00;;;4.87;100.00
44140;BME280;29803;51.048;4.686;2023-03-05T08:24:49;101917.03;;;4.85;100.00
44140;BME280;29803;51.048;4.686;2023-03-05T08:27:21;101916.53;;;4.92;100.00
44140;BME280;29803;51.048;4.686;2023-03-05T08:29:51;101913.22;;;4.89;100.00
44140;BME280;29803;51.048;4.686;2023-03-05T08:32:22;101920.06;;;4.93;100.00
44140;BME280;29803;51.048;4.686;2023-03-05T08:34:55;101913.22;;;4.89;100.00
44140;BME280;29803;51.048;4.686;2023-03-05T08:37:27;101921.63;;;4.83;100.00
44140;BME280;29803;51.048;4.686;2023-03-05T08:40:01;101910.84;;;4.72;100.00
44140;BME280;29803;51.048;4.686;2023-03-05T08:42:32;101909.56;;;4.64;100.00
44140;BME280;29803;51.048;4.686;2023-03-05T08:45:02;101907.91;;;4.49;100.00
44140;BME280;29803;51.048;4.686;2023-03-05T08:47:33;101897.22;;;4.36;100.00
44140;BME280;29803;51.048;4.686;2023-03-05T08:50:07;101898.03;;;4.24;100.00
44140;BME280;29803;51.048;4.686;2023-03-05T08:52:38;101898.63;;;4.15;100.00
44140;BME280;29803;51.048;4.686;2023-03-05T08:55:10;101893.59;;;4.10;100.00
44140;BME280;29803;51.048;4.686;2023-03-05T08:57:40;101891.16;;;4.07;100.00
44140;BME280;29803;51.048;4.686;2023-03-05T09:00:11;101892.09;;;4.06;100.00
44140;BME280;29803;51.048;4.686;2023-03-05T09:02:43;101888.59;;;4.06;100.00
44140;BME280;29803;51.048;4.686;2023-03-05T09:05:13;101889.75;;;4.02;100.00
44140;BME280;29803;51.048;4.686;2023-03-05T09:07:44;101887.66;;;4.07;100.00
44140;BME280;29803;51.048;4.686;2023-03-05T09:10:15;101876.66;;;4.26;100.00
44140;BME280;29803;51.048;4.686;2023-03-05T09:12:47;101885.50;;;4.26;100.00
44140;BME280;29803;51.048;4.686;2023-03-05T09:15:18;101881.50;;;4.33;100.00
44140;BME280;29803;51.048;4.686;2023-03-05T09:17:49;101874.94;;;4.39;100.00
44140;BME280;29803;51.048;4.686;2023-03-05T09:20:19;101868.75;;;4.38;100.00
44140;BME280;29803;51.048;4.686;2023-03-05T09:22:50;101869.63;;;4.52;100.00
44140;BME280;29803;51.048;4.686;2023-03-05T09:25:20;101869.88;;;4.61;100.00
44140;BME280;29803;51.048;4.686;2023-03-05T09:27:52;101862.91;;;4.73;100.00
44140;BME280;29803;51.048;4.686;2023-03-05T09:30:22;101858.66;;;4.83;100.00
44140;BME280;29803;51.048;4.686;2023-03-05T09:32:53;101857.63;;;4.99;100.00
44140;BME280;29803;51.048;4.686;2023-03-05T09:35:23;101849.53;;;5.00;100.00
44140;BME280;29803;51.048;4.686;2023-03-05T09:37:54;101854.31;;;5.08;100.00
44140;BME280;29803;51.048;4.686;2023-03-05T09:40:26;101848.34;;;5.17;100.00
44140;BME280;29803;51.048;4.686;2023-03-05T09:49:27;101843.56;;;5.35;100.00
44140;BME280;29803;51.048;4.686;2023-03-05T09:54:54;101841.69;;;5.61;100.00
44140;BME280;29803;51.048;4.686;2023-03-05T09:57:47;101841.44;;;5.77;100.00
44140;BME280;29803;51.048;4.686;2023-03-05T10:02:58;101835.28;;;6.13;100.00
44140;BME280;29803;51.048;4.686;2023-03-05T10:05:44;101830.78;;;6.37;100.00
44140;BME280;29803;51.048;4.686;2023-03-05T10:08:20;101834.03;;;6.65;100.00
44140;BME280;29803;51.048;4.686;2023-03-05T10:10:52;101833.75;;;6.57;100.00
44140;BME280;29803;51.048;4.686;2023-03-05T10:13:29;101836.41;;;6.57;100.00
44140;BME280;29803;51.048;4.686;2023-03-05T10:22:11;101826.34;;;6.84;100.00
44140;BME280;29803;51.048;4.686;2023-03-05T10:25:15;101827.66;;;6.79;100.00
44140;BME280;29803;51.048;4.686;2023-03-05T10:27:51;101821.47;;;6.78;100.00
44140;BME280;29803;51.048;4.686;2023-03-05T10:34:04;101819.22;;;6.49;100.00
44140;BME280;29803;51.048;4.686;2023-03-05T10:36:58;101813.56;;;6.65;100.00
44140;BME280;29803;51.048;4.686;2023-03-05T10:45:51;101806.97;;;7.05;100.00
44140;BME280;29803;51.048;4.686;2023-03-05T10:51:18;101804.50;;;6.90;100.00
44140;BME280;29803;51.048;4.686;2023-03-05T10:53:54;101802.81;;;6.89;100.00
44140;BME280;29803;51.048;4.686;2023-03-05T10:56:27;101806.22;;;6.91;100.00
44140;BME280;29803;51.048;4.686;2023-03-05T10:58:57;101797.84;;;6.96;100.00
44140;BME280;29803;51.048;4.686;2023-03-05T11:01:29;101789.97;;;6.83;100.00
44140;BME280;29803;51.048;4.686;2023-03-05T11:04:05;101786.31;;;6.95;100.00
44140;BME280;29803;51.048;4.686;2023-03-05T11:06:37;101784.75;;;7.15;100.00
44140;BME280;29803;51.048;4.686;2023-03-05T11:09:28;101784.75;;;7.38;100.00
44140;BME280;29803;51.048;4.686;2023-03-05T11:12:16;101776.81;;;7.70;100.00
44140;BME280;29803;51.048;4.686;2023-03-05T11:18:16;101777.03;;;7.78;100.00
44140;BME280;29803;51.048;4.686;2023-03-05T11:20:47;101766.03;;;7.60;100.00
44140;BME280;29803;51.048;4.686;2023-03-05T11:23:20;101762.31;;;7.40;100.00
44140;BME280;29803;51.048;4.686;2023-03-05T11:31:24;101748.22;;;6.82;100.00
44140;BME280;29803;51.048;4.686;2023-03-05T11:34:11;101750.41;;;6.77;100.00
44140;BME280;29803;51.048;4.686;2023-03-05T11:37:01;101742.53;;;6.87;100.00
44140;BME280;29803;51.048;4.686;2023-03-05T11:39:34;101736.84;;;7.03;100.00
44140;BME280;29803;51.048;4.686;2023-03-05T11:42:26;101730.19;;;7.19;100.00
44140;BME280;29803;51.048;4.686;2023-03-05T11:44:58;101725.06;;;7.39;100.00
44140;BME280;29803;51.048;4.686;2023-03-05T11:47:36;101717.41;;;7.45;100.00
44140;BME280;29803;51.048;4.686;2023-03-05T11:50:28;101713.66;;;7.37;100.00
44140;BME280;29803;51.048;4.686;2023-03-05T11:53:03;101715.28;;;7.60;100.00
44140;BME280;29803;51.048;4.686;2023-03-05T11:55:40;101707.38;;;7.70;100.00
44140;BME280;29803;51.048;4.686;2023-03-05T11:58:34;101701.94;;;7.60;100.00
44140;BME280;29803;51.048;4.686;2023-03-05T12:01:13;101694.72;;;7.83;100.00
44140;BME280;29803;51.048;4.686;2023-03-05T12:03:45;101695.28;;;7.87;100.00
44140;BME280;29803;51.048;4.686;2023-03-05T12:06:33;101690.75;;;7.98;100.00
44140;BME280;29803;51.048;4.686;2023-03-05T12:09:22;101681.22;;;8.05;100.00
44140;BME280;29803;51.048;4.686;2023-03-05T12:12:03;101671.84;;;7.90;100.00
44140;BME280;29803;51.048;4.686;2023-03-05T12:14:43;101667.66;;;7.76;100.00
44140;BME280;29803;51.048;4.686;2023-03-05T12:17:22;101660.00;;;7.72;100.00
44140;BME280;29803;51.048;4.686;2023-03-05T12:20:00;101663.44;;;7.63;100.00
44140;BME280;29803;51.048;4.686;2023-03-05T12:22:37;101654.78;;;7.49;100.00
44140;BME280;29803;51.048;4.686;2023-03-05T12:25:31;101656.22;;;7.42;100.00
44140;BME280;29803;51.048;4.686;2023-03-05T12:28:02;101645.19;;;6.81;100.00
44140;BME280;29803;51.048;4.686;2023-03-05T12:33:04;101630.44;;;6.43;100.00
44140;BME280;29803;51.048;4.686;2023-03-05T12:35:38;101633.06;;;6.21;100.00
44140;BME280;29803;51.048;4.686;2023-03-05T12:38:27;101640.88;;;6.00;100.00
44140;BME280;29803;51.048;4.686;2023-03-05T12:41:31;101626.03;;;5.85;100.00
44140;BME280;29803;51.048;4.686;2023-03-05T12:46:36;101623.03;;;5.54;100.00
44140;BME280;29803;51.048;4.686;2023-03-05T12:51:49;101617.84;;;5.29;100.00
44140;BME280;29803;51.048;4.686;2023-03-05T12:56:52;101615.22;;;5.16;100.00
44140;BME280;29803;51.048;4.686;2023-03-05T12:59:31;101612.03;;;5.11;100.00
44140;BME280;29803;51.048;4.686;2023-03-05T13:02:16;101602.69;;;5.05;100.00
44140;BME280;29803;51.048;4.686;2023-03-05T13:04:48;101597.00;;;4.99;100.00
44140;BME280;29803;51.048;4.686;2023-03-05T13:07:22;101597.66;;;4.89;100.00
44140;BME280;29803;51.048;4.686;2023-03-05T13:09:55;101592.66;;;4.85;100.00
44140;BME280;29803;51.048;4.686;2023-03-05T13:12:27;101583.72;;;4.86;100.00
44140;BME280;29803;51.048;4.686;2023-03-05T13:15:02;101581.91;;;4.86;100.00
44140;BME280;29803;51.048;4.686;2023-03-05T13:23:26;101562.13;;;4.90;100.00
44140;BME280;29803;51.048;4.686;2023-03-05T13:28:31;101556.72;;;4.92;100.00
44140;BME280;29803;51.048;4.686;2023-03-05T13:31:10;101554.91;;;4.92;100.00
44140;BME280;29803;51.048;4.686;2023-03-05T13:33:49;101560.81;;;4.96;100.00
44140;BME280;29803;51.048;4.686;2023-03-05T13:36:24;101554.44;;;4.99;100.00
44140;BME280;29803;51.048;4.686;2023-03-05T13:38:55;101559.31;;;5.05;100.00
44140;BME280;29803;51.048;4.686;2023-03-05T13:41:27;101554.84;;;5.05;100.00
44140;BME280;29803;51.048;4.686;2023-03-05T13:43:59;101548.88;;;5.02;100.00
44140;BME280;29803;51.048;4.686;2023-03-05T13:46:33;101546.47;;;4.99;100.00
44140;BME280;29803;51.048;4.686;2023-03-05T13:52:05;101532.53;;;4.95;100.00
44140;BME280;29803;51.048;4.686;2023-03-05T13:54:35;101532.88;;;4.90;100.00
44140;BME280;29803;51.048;4.686;2023-03-05T13:57:07;101531.66;;;4.83;100.00
44140;BME280;29803;51.048;4.686;2023-03-05T13:59:37;101532.03;;;4.90;100.00
44140;BME280;29803;51.048;4.686;2023-03-05T14:02:27;101523.22;;;4.89;100.00
44140;BME280;29803;51.048;4.686;2023-03-05T14:04:59;101518.88;;;4.88;100.00
44140;BME280;29803;51.048;4.686;2023-03-05T14:07:32;101517.91;;;4.89;100.00
44140;BME280;29803;51.048;4.686;2023-03-05T14:10:28;101517.91;;;4.89;100.00
44140;BME280;29803;51.048;4.686;2023-03-05T14:13:03;101514.06;;;4.93;100.00
44140;BME280;29803;51.048;4.686;2023-03-05T14:15:35;101516.28;;;4.87;100.00
44140;BME280;29803;51.048;4.686;2023-03-05T14:21:09;101501.91;;;4.78;100.00
44140;BME280;29803;51.048;4.686;2023-03-05T14:31:53;101482.25;;;4.68;100.00
44140;BME280;29803;51.048;4.686;2023-03-05T14:37:01;101475.47;;;4.64;100.00